createdAt,value
2023-04-04T00:01:04.278Z,76.93
2023-04-04T00:04:10.599Z,76.90
2023-04-04T00:07:15.843Z,76.83
2023-04-04T00:10:23.958Z,76.82
2023-04-04T00:13:31.047Z,76.90
2023-04-04T00:16:37.477Z,76.97
2023-04-04T00:19:44.914Z,76.95
2023-04-04T00:22:51.788Z,76.94
2023-04-04T00:26:00.559Z,76.97
2023-04-04T00:29:06.982Z,76.96
2023-04-04T00:32:13.404Z,76.99
2023-04-04T00:35:21.577Z,76.97
2023-04-04T00:38:26.890Z,76.97
2023-04-04T00:41:31.897Z,77.04
2023-04-04T00:44:38.556Z,77.10
2023-04-04T00:47:45.655Z,77.14
2023-04-04T00:50:52.786Z,77.17
2023-04-04T00:54:01.447Z,77.21
2023-04-04T00:57:06.324Z,77.26
2023-04-04T01:00:14.372Z,77.29
2023-04-04T01:03:21.421Z,77.27
2023-04-04T01:06:28.453Z,77.18
2023-04-04T01:09:37.652Z,77.04
2023-04-04T01:12:43.845Z,76.82
2023-04-04T01:15:48.866Z,76.80
2023-04-04T01:18:55.673Z,76.80
2023-04-04T01:22:01.090Z,76.83
2023-04-04T01:25:08.201Z,76.84
2023-04-04T01:28:16.465Z,76.85
2023-04-04T01:31:22.757Z,76.87
2023-04-04T01:35:09.134Z,76.96
2023-04-04T01:38:30.273Z,76.99
2023-04-04T01:41:36.928Z,77.03
2023-04-04T01:44:44.158Z,77.17
2023-04-04T01:47:56.337Z,77.23
2023-04-04T01:51:03.488Z,77.24
2023-04-04T01:54:08.892Z,77.31
2023-04-04T01:57:15.068Z,77.40
2023-04-04T02:00:23.093Z,77.40
2023-04-04T02:03:28.586Z,77.35
2023-04-04T02:06:34.752Z,77.38
2023-04-04T02:09:41.142Z,77.39
2023-04-04T02:12:46.885Z,77.46
2023-04-04T02:15:53.495Z,77.58
2023-04-04T02:19:00.241Z,77.53
2023-04-04T02:22:09.062Z,77.54
2023-04-04T02:25:15.313Z,77.58
2023-04-04T02:28:21.343Z,77.62
2023-04-04T02:31:27.598Z,77.54
2023-04-04T02:34:34.257Z,77.57
2023-04-04T02:37:41.400Z,77.57
2023-04-04T02:40:54.808Z,77.57
2023-04-04T02:44:00.749Z,77.44
2023-04-04T02:47:06.590Z,77.44
2023-04-04T02:50:12.764Z,77.49
2023-04-04T02:53:19.376Z,77.53
2023-04-04T02:56:26.320Z,77.59
2023-04-04T02:59:33.082Z,77.67
2023-04-04T03:02:40.384Z,77.72
2023-04-04T03:05:47.542Z,77.76
2023-04-04T03:08:54.137Z,77.76
2023-04-04T03:11:59.830Z,77.76
2023-04-04T03:15:07.808Z,77.75
2023-04-04T03:18:14.995Z,77.78
2023-04-04T03:21:21.635Z,77.78
2023-04-04T03:24:30.109Z,77.74
2023-04-04T03:27:36.659Z,77.73
2023-04-04T03:30:45.912Z,77.77
2023-04-04T03:33:53.672Z,77.78
2023-04-04T03:37:00.799Z,77.71
2023-04-04T03:40:08.357Z,77.75
2023-04-04T03:43:13.807Z,77.77
2023-04-04T03:46:22.385Z,77.73
2023-04-04T03:49:29.204Z,77.72
2023-04-04T03:52:35.722Z,77.74
2023-04-04T03:55:40.835Z,77.86
2023-04-04T03:58:46.662Z,77.86
2023-04-04T04:01:53.465Z,77.85
2023-04-04T04:05:01.915Z,77.81
2023-04-04T04:08:07.876Z,77.80
2023-04-04T04:11:20.487Z,77.78
2023-04-04T04:14:26.777Z,77.75
2023-04-04T04:17:34.182Z,77.70
2023-04-04T04:20:41.153Z,77.75
2023-04-04T04:23:48.480Z,77.76
2023-04-04T04:26:56.800Z,77.79
2023-04-04T04:30:03.750Z,77.72
2023-04-04T04:33:13.005Z,77.75
2023-04-04T04:36:23.132Z,77.74
2023-04-04T04:39:35.072Z,77.54
2023-04-04T04:42:42.384Z,77.63
2023-04-04T04:45:50.109Z,77.70
2023-04-04T04:48:56.684Z,77.79
2023-04-04T04:52:03.071Z,77.84
2023-04-04T04:55:11.353Z,77.93
2023-04-04T04:58:19.477Z,77.99
2023-04-04T05:01:25.806Z,78.01
2023-04-04T05:04:30.506Z,77.95
2023-04-04T05:07:39.565Z,77.89
2023-04-04T05:10:47.277Z,77.83
2023-04-04T05:13:55.864Z,77.75
2023-04-04T05:17:04.154Z,77.79
2023-04-04T05:20:11.706Z,77.84
2023-04-04T05:23:19.718Z,77.86
2023-04-04T05:26:27.075Z,77.84
2023-04-04T05:29:32.751Z,77.92
2023-04-04T05:32:40.429Z,77.95
2023-04-04T05:35:49.505Z,77.99
2023-04-04T05:38:56.921Z,77.92
2023-04-04T05:42:03.891Z,77.86
2023-04-04T05:45:12.844Z,77.66
2023-04-04T05:48:19.280Z,77.68
2023-04-04T05:51:25.100Z,77.74
2023-04-04T05:54:32.511Z,77.59
2023-04-04T05:57:39.626Z,77.59
2023-04-04T06:00:46.248Z,77.45
2023-04-04T06:03:53.470Z,77.36
2023-04-04T06:07:01.069Z,77.38
2023-04-04T06:10:07.259Z,77.38
2023-04-04T06:13:14.684Z,77.20
2023-04-04T06:16:22.458Z,77.19
2023-04-04T06:19:29.556Z,77.06
2023-04-04T06:22:36.708Z,77.13
2023-04-04T06:25:42.831Z,77.20
2023-04-04T06:28:50.695Z,77.12
2023-04-04T06:31:59.326Z,77.10
2023-04-04T06:35:08.194Z,77.21
2023-04-04T06:38:16.866Z,77.31
2023-04-04T06:41:23.848Z,77.27
2023-04-04T06:44:32.455Z,77.21
2023-04-04T06:47:40.159Z,76.91
2023-04-04T06:50:45.948Z,76.72
2023-04-04T06:53:52.803Z,76.72
2023-04-04T06:56:59.453Z,76.54
2023-04-04T07:00:05.491Z,76.42
2023-04-04T07:03:15.873Z,76.51
2023-04-04T07:06:24.016Z,76.27
2023-04-04T07:09:30.713Z,75.96
2023-04-04T07:12:38.881Z,75.73
2023-04-04T07:15:46.474Z,75.81
2023-04-04T07:18:53.262Z,75.77
2023-04-04T07:22:01.542Z,75.76
2023-04-04T07:25:07.894Z,75.37
2023-04-04T07:28:13.847Z,75.19
2023-04-04T07:31:21.941Z,75.15
2023-04-04T07:34:27.805Z,74.90
2023-04-04T07:37:37.496Z,74.96
2023-04-04T07:40:45.680Z,75.02
2023-04-04T07:43:52.393Z,74.91
2023-04-04T07:47:08.569Z,74.82
2023-04-04T07:50:05.191Z,74.90
2023-04-04T07:53:14.354Z,74.64
2023-04-04T07:56:21.784Z,74.49
2023-04-04T08:00:00.147Z,74.35
2023-04-04T08:03:11.629Z,74.12
2023-04-04T08:06:19.498Z,74.05
2023-04-04T08:09:25.899Z,74.05
2023-04-04T08:12:33.905Z,73.98
2023-04-04T08:15:40.161Z,73.77
2023-04-04T08:18:47.972Z,73.45
2023-04-04T08:21:54.203Z,73.26
2023-04-04T08:25:01.007Z,73.12
2023-04-04T08:28:07.602Z,73.05
2023-04-04T08:31:15.686Z,72.92
2023-04-04T08:34:21.933Z,72.58
2023-04-04T08:37:27.680Z,72.45
2023-04-04T08:40:34.983Z,72.45
2023-04-04T08:43:41.132Z,72.24
2023-04-04T08:46:48.631Z,72.30
2023-04-04T08:50:00.746Z,72.57
2023-04-04T08:53:08.470Z,72.37
2023-04-04T08:56:15.219Z,72.56
2023-04-04T08:59:22.996Z,72.72
2023-04-04T09:02:43.732Z,72.69
2023-04-04T09:05:48.320Z,72.36
2023-04-04T09:08:53.481Z,72.30
2023-04-04T09:11:58.854Z,72.15
2023-04-04T09:15:06.360Z,71.97
2023-04-04T09:18:14.179Z,71.72
2023-04-04T09:21:26.464Z,71.30
2023-04-04T09:24:32.916Z,70.97
2023-04-04T09:27:41.014Z,71.02
2023-04-04T09:30:48.227Z,70.94
2023-04-04T09:33:55.007Z,70.94
2023-04-04T09:37:03.292Z,71.04
2023-04-04T09:40:11.023Z,71.11
2023-04-04T09:43:17.385Z,70.86
2023-04-04T09:46:22.151Z,70.86
2023-04-04T09:49:35.123Z,70.88
2023-04-04T09:52:43.363Z,71.01
2023-04-04T09:55:53.348Z,71.01
2023-04-04T09:59:05.102Z,70.68
2023-04-04T10:02:12.524Z,70.46
2023-04-04T10:05:19.062Z,70.41
2023-04-04T10:08:30.938Z,70.53
2023-04-04T10:11:50.130Z,70.62
2023-04-04T10:14:59.561Z,70.48
2023-04-04T10:18:06.227Z,70.23
2023-04-04T10:21:15.863Z,70.03
2023-04-04T10:24:21.437Z,69.79
2023-04-04T10:27:28.086Z,69.66
2023-04-04T10:30:34.166Z,69.48
2023-04-04T10:34:25.849Z,69.15
2023-04-04T10:37:37.407Z,69.01
2023-04-04T10:40:50.003Z,68.62
2023-04-04T10:43:56.290Z,68.57
2023-04-04T10:47:04.760Z,68.33
2023-04-04T10:50:11.668Z,68.14
2023-04-04T10:53:18.273Z,68.24
2023-04-04T10:56:25.140Z,68.01
2023-04-04T10:59:31.829Z,67.92
2023-04-04T11:03:04.604Z,68.03
2023-04-04T11:06:11.368Z,68.05
2023-04-04T11:09:17.464Z,67.79
2023-04-04T11:12:29.108Z,67.71
2023-04-04T11:15:39.169Z,67.48
2023-04-04T11:18:59.681Z,67.31
2023-04-04T11:22:08.794Z,67.34
2023-04-04T11:25:16.293Z,67.47
2023-04-04T11:28:29.926Z,67.72
2023-04-04T11:31:43.225Z,68.00
2023-04-04T11:34:46.853Z,68.24
2023-04-04T11:38:13.276Z,68.12
2023-04-04T11:41:22.204Z,67.90
2023-04-04T11:44:32.816Z,67.70
2023-04-04T11:47:40.257Z,67.57
2023-04-04T11:50:56.622Z,67.49
2023-04-04T11:54:04.125Z,67.49
2023-04-04T11:57:11.052Z,67.55
2023-04-04T12:00:18.749Z,67.24
2023-04-04T12:03:25.757Z,66.74
2023-04-04T12:06:32.608Z,66.49
2023-04-04T12:09:40.802Z,66.42
2023-04-04T12:12:46.237Z,66.03
2023-04-04T12:15:53.043Z,66.01
2023-04-04T12:19:01.727Z,66.39
2023-04-04T12:22:09.814Z,66.37
2023-04-04T12:25:16.993Z,66.09
2023-04-04T12:28:22.828Z,65.84
2023-04-04T12:31:29.387Z,65.72
2023-04-04T12:34:43.054Z,65.81
2023-04-04T12:37:51.153Z,65.74
2023-04-04T12:40:58.153Z,65.76
2023-04-04T12:44:04.339Z,65.39
2023-04-04T12:47:17.628Z,65.43
2023-04-04T12:50:25.668Z,65.54
2023-04-04T12:53:30.896Z,65.34
2023-04-04T12:56:40.406Z,65.13
2023-04-04T12:59:49.197Z,65.08
2023-04-04T13:02:56.979Z,64.82
2023-04-04T13:06:04.944Z,64.66
2023-04-04T13:09:10.929Z,64.55
2023-04-04T13:12:20.905Z,64.37
2023-04-04T13:15:28.136Z,64.38
2023-04-04T13:18:38.662Z,64.28
2023-04-04T13:21:46.460Z,64.08
2023-04-04T13:24:53.331Z,63.81
2023-04-04T13:28:01.177Z,63.88
2023-04-04T13:31:07.105Z,63.95
2023-04-04T13:34:14.264Z,63.96
2023-04-04T13:37:20.150Z,63.64
2023-04-04T13:40:26.511Z,63.64
2023-04-04T13:43:34.097Z,63.52
2023-04-04T13:46:40.713Z,63.40
2023-04-04T13:49:45.976Z,63.34
2023-04-04T13:52:52.057Z,63.05
2023-04-04T13:56:17.021Z,63.07
2023-04-04T13:59:04.476Z,63.02
2023-04-04T14:02:12.567Z,62.77
2023-04-04T14:05:19.029Z,62.65
2023-04-04T14:08:26.430Z,62.50
2023-04-04T14:11:34.489Z,62.47
2023-04-04T14:14:39.735Z,62.29
2023-04-04T14:17:47.213Z,62.19
2023-04-04T14:20:53.827Z,62.24
2023-04-04T14:24:00.508Z,62.30
2023-04-04T14:27:08.340Z,62.25
2023-04-04T14:30:17.307Z,62.12
2023-04-04T14:33:23.861Z,61.90
2023-04-04T14:36:31.621Z,61.98
2023-04-04T14:39:38.635Z,61.96
2023-04-04T14:42:44.256Z,61.92
2023-04-04T14:45:50.942Z,61.78
2023-04-04T14:48:56.899Z,61.61
2023-04-04T14:52:05.610Z,61.58
2023-04-04T14:55:12.401Z,61.54
2023-04-04T14:58:18.324Z,61.56
2023-04-04T15:01:24.140Z,61.69
2023-04-04T15:04:30.244Z,61.68
2023-04-04T15:07:36.146Z,61.62
2023-04-04T15:10:42.476Z,61.65
2023-04-04T15:13:49.680Z,61.61
2023-04-04T15:16:56.018Z,61.56
2023-04-04T15:20:02.182Z,61.64
2023-04-04T15:23:09.173Z,61.63
2023-04-04T15:26:14.948Z,61.57
2023-04-04T15:29:23.838Z,61.60
2023-04-04T15:32:31.234Z,61.58
2023-04-04T15:35:38.714Z,61.63
2023-04-04T15:38:44.517Z,61.64
2023-04-04T15:41:51.070Z,61.65
2023-04-04T15:44:57.324Z,61.68
2023-04-04T15:48:05.212Z,61.64
2023-04-04T15:51:15.359Z,61.59
2023-04-04T15:54:21.946Z,61.56
2023-04-04T15:57:27.618Z,61.57
2023-04-04T16:00:38.837Z,61.59
2023-04-04T16:03:46.270Z,61.54
2023-04-04T16:06:54.227Z,61.51
2023-04-04T16:09:59.594Z,61.50
2023-04-04T16:13:06.283Z,61.52
2023-04-04T16:16:13.953Z,61.53
2023-04-04T16:19:24.268Z,61.52
2023-04-04T16:22:30.569Z,61.54
2023-04-04T16:25:37.720Z,61.65
2023-04-04T16:28:45.511Z,61.74
2023-04-04T16:31:53.372Z,61.77
2023-04-04T16:35:01.981Z,61.82
2023-04-04T16:38:10.288Z,61.86
2023-04-04T16:41:16.901Z,61.95
2023-04-04T16:44:22.911Z,61.99
2023-04-04T16:47:28.939Z,62.03
2023-04-04T16:50:35.512Z,62.06
2023-04-04T16:53:42.932Z,62.13
2023-04-04T16:56:48.931Z,62.20
2023-04-04T16:59:56.776Z,62.26
2023-04-04T17:03:03.007Z,62.35
2023-04-04T17:06:09.528Z,62.43
2023-04-04T17:09:15.082Z,62.58
2023-04-04T17:12:23.836Z,62.70
2023-04-04T17:15:31.802Z,62.83
2023-04-04T17:18:38.342Z,62.93
2023-04-04T17:21:44.679Z,63.05
2023-04-04T17:24:49.977Z,63.13
2023-04-04T17:27:55.216Z,63.21
2023-04-04T17:31:01.261Z,63.27
2023-04-04T17:34:11.137Z,63.32
2023-04-04T17:37:18.539Z,63.36
2023-04-04T17:40:27.380Z,63.41
2023-04-04T17:43:32.956Z,63.45
2023-04-04T17:46:38.975Z,63.48
2023-04-04T17:49:45.955Z,63.48
2023-04-04T17:52:52.760Z,63.52
2023-04-04T17:55:58.732Z,63.61
2023-04-04T17:59:04.649Z,63.65
2023-04-04T18:02:11.737Z,63.67
2023-04-04T18:05:16.828Z,63.67
2023-04-04T18:08:24.161Z,63.66
2023-04-04T18:11:32.369Z,63.71
2023-04-04T18:14:38.242Z,63.77
2023-04-04T18:17:40.260Z,63.85
2023-04-04T18:20:35.368Z,63.91
2023-04-04T18:23:42.644Z,63.92
2023-04-04T18:26:48.099Z,63.94
2023-04-04T18:29:53.736Z,63.92
2023-04-04T18:33:00.831Z,63.91
2023-04-04T18:36:09.783Z,64.01
2023-04-04T18:39:17.809Z,64.10
2023-04-04T18:42:23.582Z,64.18
2023-04-04T18:45:39.322Z,64.30
2023-04-04T18:48:40.218Z,64.31
2023-04-04T18:51:46.950Z,64.40
2023-04-04T18:54:53.921Z,64.51
2023-04-04T18:58:01.086Z,64.55
2023-04-04T19:01:10.081Z,64.56
2023-04-04T19:04:17.106Z,64.56
2023-04-04T19:07:22.953Z,64.54
2023-04-04T19:10:28.837Z,64.55
2023-04-04T19:13:36.635Z,64.63
2023-04-04T19:16:43.140Z,64.81
2023-04-04T19:19:50.221Z,64.96
2023-04-04T19:22:57.769Z,65.01
2023-04-04T19:26:04.725Z,65.04
2023-04-04T19:29:14.041Z,65.12
2023-04-04T19:32:31.797Z,65.24
2023-04-04T19:35:40.966Z,65.32
2023-04-04T19:38:56.541Z,65.38
2023-04-04T19:42:05.322Z,65.40
2023-04-04T19:45:12.130Z,65.44
2023-04-04T19:48:21.047Z,65.52
2023-04-04T19:51:39.900Z,65.42
2023-04-04T19:54:49.135Z,65.43
2023-04-04T19:57:55.242Z,65.43
2023-04-04T20:01:00.973Z,65.55
2023-04-04T20:04:07.184Z,65.56
2023-04-04T20:07:12.948Z,65.71
2023-04-04T20:10:19.158Z,65.67
2023-04-04T20:13:25.354Z,65.74
2023-04-04T20:16:31.559Z,65.84
2023-04-04T20:19:37.420Z,65.98
2023-04-04T20:22:43.301Z,66.07
2023-04-04T20:25:56.478Z,66.12
2023-04-04T20:29:03.015Z,66.15
2023-04-04T20:32:20.955Z,66.26
2023-04-04T20:35:44.363Z,66.36
2023-04-04T20:38:52.269Z,66.49
2023-04-04T20:41:57.956Z,66.59
2023-04-04T20:45:04.970Z,66.59
2023-04-04T20:48:11.784Z,66.63
2023-04-04T20:51:17.873Z,66.70
2023-04-04T20:54:27.115Z,66.72
2023-04-04T20:57:37.699Z,66.75
2023-04-04T21:00:54.153Z,66.82
2023-04-04T21:04:01.326Z,66.89
2023-04-04T21:07:09.165Z,67.02
2023-04-04T21:10:14.566Z,67.11
2023-04-04T21:13:20.306Z,67.08
2023-04-04T21:16:30.873Z,67.18
2023-04-04T21:19:37.831Z,67.29
2023-04-04T21:22:43.177Z,67.31
2023-04-04T21:25:59.029Z,67.24
2023-04-04T21:29:07.057Z,67.26
2023-04-04T21:32:17.076Z,67.43
2023-04-04T21:35:22.908Z,67.55
2023-04-04T21:38:41.799Z,67.59
2023-04-04T21:41:48.983Z,67.64
2023-04-04T21:44:55.244Z,67.65
2023-04-04T21:48:02.569Z,67.66
2023-04-04T21:51:10.495Z,67.74
2023-04-04T21:54:17.034Z,67.83
2023-04-04T21:57:23.274Z,67.88
2023-04-04T22:00:30.569Z,67.93
2023-04-04T22:03:37.954Z,68.08
2023-04-04T22:06:44.530Z,68.08
2023-04-04T22:09:49.630Z,68.11
2023-04-04T22:12:56.873Z,68.13
2023-04-04T22:16:06.226Z,68.13
2023-04-04T22:19:12.584Z,68.19
2023-04-04T22:22:20.254Z,68.25
2023-04-04T22:25:28.340Z,68.28
2023-04-04T22:28:35.278Z,68.31
2023-04-04T22:31:43.883Z,68.36
2023-04-04T22:34:50.633Z,68.40
2023-04-04T22:37:57.459Z,68.41
2023-04-04T22:41:03.576Z,68.46
2023-04-04T22:44:10.428Z,68.57
2023-04-04T22:47:18.505Z,68.65
2023-04-04T22:50:25.080Z,68.72
2023-04-04T22:53:31.958Z,68.80
2023-04-04T22:56:37.992Z,68.87
2023-04-04T22:59:44.132Z,68.93
2023-04-04T23:02:51.825Z,69.02
2023-04-04T23:05:57.496Z,69.07
2023-04-04T23:09:04.353Z,68.95
2023-04-04T23:12:09.944Z,68.81
2023-04-04T23:15:16.660Z,68.81
2023-04-04T23:18:22.845Z,68.90
2023-04-04T23:21:29.439Z,69.08
2023-04-04T23:24:35.227Z,69.14
2023-04-04T23:27:41.500Z,69.27
2023-04-04T23:30:47.596Z,69.34
2023-04-04T23:33:55.683Z,69.39
2023-04-04T23:37:02.124Z,69.46
2023-04-04T23:40:09.676Z,69.50
2023-04-04T23:43:15.513Z,69.52
2023-04-04T23:46:22.764Z,69.58
2023-04-04T23:49:28.872Z,69.61
2023-04-04T23:52:35.918Z,69.61
2023-04-04T23:55:42.599Z,69.62
2023-04-04T23:58:48.887Z,69.66
